createdAt,value
2019-03-02T00:13:52.305Z,6.11
2019-03-02T00:28:54.859Z,6.24
2019-03-02T00:43:59.790Z,5.95
2019-03-02T00:59:03.984Z,5.67
2019-03-02T01:14:09.968Z,5.72
2019-03-02T01:29:15.535Z,7.49
2019-03-02T01:44:17.644Z,8.13
2019-03-02T01:59:21.120Z,8.50
2019-03-02T02:14:27.239Z,8.42
2019-03-02T02:29:30.170Z,8.17
2019-03-02T02:44:37.671Z,8.27
2019-03-02T02:59:39.761Z,8.09
2019-03-02T03:14:43.302Z,8.08
2019-03-02T03:29:49.697Z,8.08
2019-03-02T03:44:50.494Z,8.14
2019-03-02T03:59:58.722Z,8.19
2019-03-02T04:15:01.380Z,8.39
2019-03-02T04:30:07.093Z,8.37
2019-03-02T04:45:11.365Z,8.27
2019-03-02T05:00:15.852Z,8.19
2019-03-02T05:15:18.465Z,8.12
2019-03-02T05:30:22.283Z,7.96
2019-03-02T05:45:26.019Z,8.02
2019-03-02T06:00:28.646Z,8.09
2019-03-02T06:15:32.452Z,8.48
2019-03-02T06:30:35.824Z,8.83
2019-03-02T06:45:40.543Z,8.21
2019-03-02T07:00:45.676Z,8.34
2019-03-02T07:15:48.320Z,8.62
2019-03-02T07:30:52.133Z,9.02
2019-03-02T07:45:54.706Z,10.02
2019-03-02T08:00:58.041Z,11.34
2019-03-02T08:16:03.209Z,12.62
2019-03-02T08:31:05.491Z,14.24
2019-03-02T08:46:11.473Z,15.47
2019-03-02T09:01:18.280Z,16.44
2019-03-02T09:16:19.997Z,16.15
2019-03-02T09:31:26.407Z,16.86
2019-03-02T09:46:30.797Z,14.99
2019-03-02T10:01:35.755Z,16.69
2019-03-02T10:16:38.853Z,14.34
2019-03-02T10:31:43.945Z,12.55
2019-03-02T10:46:47.214Z,14.31
2019-03-02T11:01:51.371Z,17.11
2019-03-02T11:16:58.293Z,13.67
2019-03-02T11:32:07.178Z,15.57
2019-03-02T11:47:13.423Z,13.49
2019-03-02T12:02:23.849Z,14.06
2019-03-02T12:33:06.254Z,13.53
2019-03-02T12:48:29.291Z,12.84
2019-03-02T13:03:39.625Z,12.81
2019-03-02T13:18:50.596Z,13.23
2019-03-02T13:33:55.356Z,12.88
2019-03-02T13:49:01.786Z,12.41
2019-03-02T14:04:12.297Z,11.37
2019-03-02T14:19:17.547Z,10.90
2019-03-02T14:34:22.218Z,10.81
2019-03-02T14:49:30.735Z,10.63
2019-03-02T15:20:19.549Z,9.83
2019-03-02T15:35:25.449Z,9.39
2019-03-02T15:50:33.872Z,8.90
2019-03-02T16:05:39.897Z,8.21
2019-03-02T16:20:46.634Z,7.75
2019-03-02T16:35:57.474Z,7.54
2019-03-02T16:51:04.594Z,7.41
2019-03-02T17:06:11.251Z,7.18
2019-03-02T17:21:22.435Z,7.01
2019-03-02T17:36:29.508Z,6.90
2019-03-02T17:51:44.059Z,6.85
2019-03-02T18:06:59.153Z,6.70
2019-03-02T18:22:00.883Z,6.46
2019-03-02T18:37:05.972Z,6.02
2019-03-02T18:52:17.213Z,5.58
2019-03-02T19:07:19.525Z,5.29
2019-03-02T19:22:22.183Z,5.19
2019-03-02T19:37:24.916Z,5.01
2019-03-02T19:52:28.876Z,4.93
2019-03-02T20:07:31.953Z,4.78
2019-03-02T20:22:34.512Z,4.74
2019-03-02T20:37:37.090Z,4.68
2019-03-02T20:52:39.791Z,4.52
2019-03-02T21:07:42.692Z,4.44
2019-03-02T21:22:48.726Z,4.34
2019-03-02T21:37:51.298Z,4.36
2019-03-02T21:52:59.517Z,4.50
2019-03-02T22:08:02.834Z,4.63
2019-03-02T22:23:05.528Z,4.58
2019-03-02T22:38:08.085Z,4.44
2019-03-02T22:53:10.648Z,4.14
2019-03-02T23:08:13.218Z,3.71
2019-03-02T23:23:15.784Z,3.44
2019-03-02T23:38:19.997Z,3.28
2019-03-02T23:53:22.563Z,3.12
